createdAt,value
2023-04-11T00:01:03.642Z,99907.08
2023-04-11T00:03:33.194Z,99904.21
2023-04-11T00:06:01.453Z,99902.89
2023-04-11T00:08:30.314Z,99899.33
2023-04-11T00:11:02.895Z,99897.35
2023-04-11T00:13:31.011Z,99896.54
2023-04-11T00:16:05.658Z,99900.98
2023-04-11T00:18:37.949Z,99900.52
2023-04-11T00:21:08.838Z,99900.21
2023-04-11T00:23:38.005Z,99897.15
2023-04-11T00:26:06.833Z,99898.06
2023-04-11T00:28:43.857Z,99897.05
2023-04-11T00:31:12.550Z,99895.98
2023-04-11T00:33:41.057Z,99896.25
2023-04-11T00:36:10.645Z,99893.39
2023-04-11T00:38:42.337Z,99888.48
2023-04-11T00:41:10.954Z,99886.40
2023-04-11T00:43:49.844Z,99883.55
2023-04-11T00:46:18.839Z,99884.41
2023-04-11T00:48:48.057Z,99885.45
2023-04-11T00:51:23.984Z,99889.66
2023-04-11T00:53:53.342Z,99892.36
2023-04-11T00:56:22.377Z,99890.95
2023-04-11T00:58:51.121Z,99894.20
2023-04-11T01:01:20.117Z,99895.77
2023-04-11T01:03:49.519Z,99897.55
2023-04-11T01:06:18.928Z,99894.21
2023-04-11T01:08:48.102Z,99893.77
2023-04-11T01:11:18.254Z,99896.96
2023-04-11T01:13:46.339Z,99897.02
2023-04-11T01:16:15.404Z,99898.44
2023-04-11T01:18:43.974Z,99896.42
2023-04-11T01:21:12.077Z,99896.05
2023-04-11T01:23:40.150Z,99894.72
2023-04-11T01:26:08.218Z,99893.23
2023-04-11T01:28:36.482Z,99888.17
2023-04-11T01:31:06.134Z,99891.53
2023-04-11T01:33:34.840Z,99888.40
2023-04-11T01:36:03.152Z,99887.21
2023-04-11T01:38:32.198Z,99888.23
2023-04-11T01:41:00.586Z,99888.67
2023-04-11T01:43:28.895Z,99882.89
2023-04-11T01:45:57.191Z,99883.38
2023-04-11T01:48:25.991Z,99881.71
2023-04-11T01:50:56.315Z,99874.23
2023-04-11T01:53:24.529Z,99875.30
2023-04-11T01:55:53.268Z,99873.13
2023-04-11T01:58:21.954Z,99872.77
2023-04-11T02:00:50.062Z,99868.58
2023-04-11T02:03:21.315Z,99870.39
2023-04-11T02:05:56.125Z,99863.01
2023-04-11T02:08:24.683Z,99864.02
2023-04-11T02:10:54.234Z,99867.90
2023-04-11T02:13:22.458Z,99864.02
2023-04-11T02:15:51.263Z,99865.30
2023-04-11T02:18:21.718Z,99867.04
2023-04-11T02:20:50.419Z,99860.95
2023-04-11T02:23:24.320Z,99860.30
2023-04-11T02:25:52.869Z,99859.33
2023-04-11T02:28:21.279Z,99859.48
2023-04-11T02:30:51.168Z,99856.91
2023-04-11T02:33:20.741Z,99858.90
2023-04-11T02:35:49.039Z,99857.12
2023-04-11T02:38:17.925Z,99856.40
2023-04-11T02:40:47.440Z,99855.06
2023-04-11T02:43:19.117Z,99853.23
2023-04-11T02:45:47.474Z,99854.64
2023-04-11T02:48:16.025Z,99852.80
2023-04-11T02:50:50.604Z,99844.13
2023-04-11T02:53:19.506Z,99842.15
2023-04-11T02:55:49.656Z,99842.77
2023-04-11T02:58:20.232Z,99842.09
2023-04-11T03:00:49.678Z,99840.36
2023-04-11T03:03:27.426Z,99840.45
2023-04-11T03:05:57.114Z,99840.23
2023-04-11T03:08:25.993Z,99838.45
2023-04-11T03:10:56.885Z,99837.42
2023-04-11T03:13:26.821Z,99840.66
2023-04-11T03:15:55.096Z,99839.90
2023-04-11T03:18:23.842Z,99839.25
2023-04-11T03:20:52.578Z,99841.83
2023-04-11T03:23:21.004Z,99840.33
2023-04-11T03:25:51.023Z,99845.65
2023-04-11T03:28:19.711Z,99842.16
2023-04-11T03:30:48.907Z,99838.23
2023-04-11T03:33:20.389Z,99837.42
2023-04-11T03:35:48.419Z,99837.97
2023-04-11T03:38:17.196Z,99838.63
2023-04-11T03:40:45.677Z,99838.02
2023-04-11T03:43:17.388Z,99840.12
2023-04-11T03:45:46.113Z,99840.17
2023-04-11T03:48:20.513Z,99840.28
2023-04-11T03:50:57.097Z,99843.57
2023-04-11T03:53:31.964Z,99845.19
2023-04-11T03:56:05.896Z,99847.09
2023-04-11T03:58:37.365Z,99844.84
2023-04-11T04:01:06.823Z,99842.95
2023-04-11T04:03:36.848Z,99844.05
2023-04-11T04:06:05.791Z,99838.77
2023-04-11T04:08:34.391Z,99834.25
2023-04-11T04:11:03.984Z,99835.70
2023-04-11T04:13:33.073Z,99829.08
2023-04-11T04:16:12.173Z,99827.25
2023-04-11T04:18:42.594Z,99824.02
2023-04-11T04:21:10.952Z,99826.16
2023-04-11T04:23:47.716Z,99823.38
2023-04-11T04:26:25.124Z,99814.31
2023-04-11T04:29:10.288Z,99807.95
2023-04-11T04:31:53.043Z,99802.16
2023-04-11T04:34:29.218Z,99802.73
2023-04-11T04:36:59.829Z,99797.99
2023-04-11T04:39:38.243Z,99799.20
2023-04-11T04:42:10.116Z,99796.02
2023-04-11T04:45:00.195Z,99792.42
2023-04-11T04:47:33.760Z,99787.92
2023-04-11T04:50:01.746Z,99793.41
2023-04-11T04:52:30.802Z,99793.33
2023-04-11T04:55:00.229Z,99789.90
2023-04-11T04:57:29.318Z,99789.06
2023-04-11T04:59:57.352Z,99788.00
2023-04-11T05:02:26.803Z,99784.73
2023-04-11T05:04:56.608Z,99787.27
2023-04-11T05:07:26.685Z,99788.46
2023-04-11T05:10:00.717Z,99784.26
2023-04-11T05:12:30.389Z,99782.23
2023-04-11T05:15:03.327Z,99780.80
2023-04-11T05:17:32.996Z,99782.05
2023-04-11T05:20:01.287Z,99781.10
2023-04-11T05:22:31.851Z,99780.67
2023-04-11T05:25:06.060Z,99776.90
2023-04-11T05:27:34.678Z,99779.66
2023-04-11T05:30:03.331Z,99778.25
2023-04-11T05:32:38.291Z,99776.45
2023-04-11T05:35:07.209Z,99776.31
2023-04-11T05:37:45.144Z,99771.03
2023-04-11T05:40:14.470Z,99765.27
2023-04-11T05:42:43.221Z,99767.33
2023-04-11T05:45:12.211Z,99771.77
2023-04-11T05:47:41.267Z,99769.27
2023-04-11T05:50:10.786Z,99765.71
2023-04-11T05:52:39.411Z,99766.67
2023-04-11T05:55:08.017Z,99765.57
2023-04-11T05:57:41.887Z,99770.24
2023-04-11T06:00:13.532Z,99769.95
2023-04-11T06:03:02.192Z,99769.77
2023-04-11T06:05:33.776Z,99771.27
2023-04-11T06:08:03.278Z,99768.05
2023-04-11T06:10:31.729Z,99768.20
2023-04-11T06:12:59.929Z,99764.91
2023-04-11T06:15:28.410Z,99765.52
2023-04-11T06:17:56.773Z,99763.80
2023-04-11T06:20:25.846Z,99759.41
2023-04-11T06:22:54.064Z,99762.36
2023-04-11T06:25:22.330Z,99757.94
2023-04-11T06:27:50.466Z,99753.77
2023-04-11T06:30:19.306Z,99751.30
2023-04-11T06:32:57.181Z,99756.55
2023-04-11T06:35:25.698Z,99750.77
2023-04-11T06:37:53.741Z,99752.85
2023-04-11T06:40:22.638Z,99753.05
2023-04-11T06:42:50.973Z,99751.16
2023-04-11T06:45:19.477Z,99751.30
2023-04-11T06:47:50.004Z,99750.36
2023-04-11T06:50:18.198Z,99749.52
2023-04-11T06:52:46.780Z,99752.14
2023-04-11T06:55:15.761Z,99746.95
2023-04-11T06:57:43.960Z,99747.21
2023-04-11T07:00:16.427Z,99748.98
2023-04-11T07:02:45.870Z,99744.23
2023-04-11T07:05:15.019Z,99744.84
2023-04-11T07:07:43.570Z,99741.69
2023-04-11T07:10:11.676Z,99733.17
2023-04-11T07:12:40.259Z,99730.60
2023-04-11T07:15:13.137Z,99727.51
2023-04-11T07:17:45.185Z,99724.08
2023-04-11T07:20:13.284Z,99725.20
2023-04-11T07:22:48.612Z,99718.64
2023-04-11T07:25:22.822Z,99716.88
2023-04-11T07:27:51.729Z,99717.61
2023-04-11T07:30:21.746Z,99716.17
2023-04-11T07:33:02.347Z,99711.55
2023-04-11T07:35:31.717Z,99711.59
2023-04-11T07:38:02.942Z,99703.73
2023-04-11T07:40:32.454Z,99700.24
2023-04-11T07:43:03.062Z,99693.89
2023-04-11T07:45:31.357Z,99684.02
2023-04-11T07:48:00.328Z,99684.94
2023-04-11T07:50:28.474Z,99685.81
2023-04-11T07:52:56.866Z,99683.99
2023-04-11T07:55:25.357Z,99679.80
2023-04-11T07:57:53.392Z,99677.35
2023-04-11T08:00:22.631Z,99677.38
2023-04-11T08:02:52.595Z,99675.73
2023-04-11T08:05:21.060Z,99669.38
2023-04-11T08:07:51.534Z,99675.98
2023-04-11T08:10:20.015Z,99673.45
2023-04-11T08:12:48.531Z,99672.51
2023-04-11T08:15:19.573Z,99661.74
2023-04-11T08:17:49.938Z,99664.44
2023-04-11T08:20:19.050Z,99660.30
2023-04-11T08:22:55.041Z,99663.48
2023-04-11T08:25:23.119Z,99661.37
2023-04-11T08:27:52.651Z,99658.98
2023-04-11T08:30:20.757Z,99654.08
2023-04-11T08:32:49.614Z,99654.75
2023-04-11T08:35:18.044Z,99653.98
2023-04-11T08:37:46.537Z,99646.86
2023-04-11T08:40:14.675Z,99652.67
2023-04-11T08:42:43.864Z,99649.60
2023-04-11T08:45:12.298Z,99641.92
2023-04-11T08:47:41.508Z,99637.09
2023-04-11T08:50:10.846Z,99640.39
2023-04-11T08:52:39.184Z,99631.59
2023-04-11T08:55:09.377Z,99626.77
2023-04-11T08:57:38.402Z,99624.40
2023-04-11T09:00:19.018Z,99622.67
2023-04-11T09:02:57.534Z,99620.86
2023-04-11T09:05:29.612Z,99618.27
2023-04-11T09:07:59.134Z,99616.56
2023-04-11T09:10:27.914Z,99611.47
2023-04-11T09:13:00.946Z,99610.48
2023-04-11T09:15:30.418Z,99603.09
2023-04-11T09:18:00.563Z,99601.83
2023-04-11T09:20:38.251Z,99597.34
2023-04-11T09:23:06.829Z,99583.56
2023-04-11T09:25:44.044Z,99580.14
2023-04-11T09:28:12.685Z,99578.02
2023-04-11T09:30:57.893Z,99574.44
2023-04-11T09:33:28.620Z,99572.63
2023-04-11T09:35:58.693Z,99569.55
2023-04-11T09:38:31.968Z,99562.79
2023-04-11T09:41:01.643Z,99555.43
2023-04-11T09:43:51.564Z,99550.73
2023-04-11T09:46:21.533Z,99549.47
2023-04-11T09:48:50.579Z,99546.90
2023-04-11T09:51:34.272Z,99539.84
2023-04-11T09:54:03.919Z,99542.40
2023-04-11T09:56:34.904Z,99533.92
2023-04-11T09:59:05.851Z,99530.27
2023-04-11T10:01:34.465Z,99530.67
2023-04-11T10:04:04.564Z,99531.46
2023-04-11T10:06:39.948Z,99528.92
2023-04-11T10:09:11.244Z,99530.85
2023-04-11T10:11:44.744Z,99523.96
2023-04-11T10:14:43.624Z,99516.63
2023-04-11T10:17:22.895Z,99519.42
2023-04-11T10:19:56.983Z,99510.91
2023-04-11T10:22:40.699Z,99505.04
2023-04-11T10:25:17.857Z,99501.35
2023-04-11T10:28:07.530Z,99493.57
2023-04-11T10:30:41.169Z,99492.21
2023-04-11T10:33:22.034Z,99487.41
2023-04-11T10:35:59.268Z,99488.89
2023-04-11T10:38:49.392Z,99487.95
2023-04-11T10:41:33.308Z,99474.88
2023-04-11T10:44:21.103Z,99475.02
2023-04-11T10:46:56.405Z,99468.70
2023-04-11T10:49:34.764Z,99466.84
2023-04-11T10:52:23.719Z,99462.42
2023-04-11T10:54:54.566Z,99463.06
2023-04-11T10:57:28.702Z,99458.23
2023-04-11T10:59:57.516Z,99454.98
2023-04-11T11:02:26.814Z,99457.23
2023-04-11T11:04:55.837Z,99460.48
2023-04-11T11:07:24.439Z,99456.97
2023-04-11T11:09:53.698Z,99456.87
2023-04-11T11:12:21.847Z,99452.41
2023-04-11T11:14:50.282Z,99449.69
2023-04-11T11:17:18.351Z,99454.25
2023-04-11T11:19:48.627Z,99448.57
2023-04-11T11:22:17.798Z,99444.39
2023-04-11T11:24:45.910Z,99443.91
2023-04-11T11:27:24.210Z,99448.27
2023-04-11T11:29:53.213Z,99440.45
2023-04-11T11:32:28.715Z,99438.91
2023-04-11T11:34:57.915Z,99437.23
2023-04-11T11:37:27.252Z,99431.89
2023-04-11T11:39:55.362Z,99430.85
2023-04-11T11:42:24.393Z,99428.96
2023-04-11T11:44:52.455Z,99423.17
2023-04-11T11:47:21.003Z,99420.24
2023-04-11T11:49:50.931Z,99412.40
2023-04-11T11:52:34.899Z,99410.73
2023-04-11T11:55:06.851Z,99407.45
2023-04-11T11:57:37.030Z,99408.12
2023-04-11T12:00:06.310Z,99409.16
2023-04-11T12:02:40.633Z,99406.55
2023-04-11T12:05:11.193Z,99399.14
2023-04-11T12:07:39.658Z,99399.32
2023-04-11T12:10:09.371Z,99399.40
2023-04-11T12:12:42.718Z,99400.26
2023-04-11T12:15:18.408Z,99391.91
2023-04-11T12:17:50.487Z,99385.27
2023-04-11T12:20:23.450Z,99385.10
2023-04-11T12:22:54.134Z,99378.11
2023-04-11T12:25:23.010Z,99372.45
2023-04-11T12:27:51.222Z,99369.94
2023-04-11T12:30:19.385Z,99367.59
2023-04-11T12:32:51.317Z,99365.67
2023-04-11T12:35:19.946Z,99363.56
2023-04-11T12:37:48.870Z,99357.95
2023-04-11T12:40:18.020Z,99359.41
2023-04-11T12:42:56.174Z,99356.67
2023-04-11T12:45:25.933Z,99351.59
2023-04-11T12:47:54.904Z,99348.78
2023-04-11T12:50:28.563Z,99348.38
2023-04-11T12:52:57.626Z,99340.89
2023-04-11T12:55:26.601Z,99342.23
2023-04-11T12:57:55.669Z,99340.15
2023-04-11T13:00:24.249Z,99334.31
2023-04-11T13:03:12.718Z,99327.58
2023-04-11T13:05:41.863Z,99321.08
2023-04-11T13:08:10.506Z,99321.86
2023-04-11T13:10:38.860Z,99311.89
2023-04-11T13:13:17.454Z,99316.21
2023-04-11T13:15:47.476Z,99315.60
2023-04-11T13:18:15.837Z,99312.75
2023-04-11T13:20:46.285Z,99312.61
2023-04-11T13:23:16.629Z,99314.16
2023-04-11T13:25:48.782Z,99310.52
2023-04-11T13:28:17.983Z,99304.02
2023-04-11T13:30:46.886Z,99304.65
2023-04-11T13:33:16.504Z,99295.19
2023-04-11T13:35:45.381Z,99294.27
2023-04-11T13:38:16.881Z,99289.77
2023-04-11T13:40:45.739Z,99287.70
2023-04-11T13:43:14.374Z,99286.02
2023-04-11T13:45:43.925Z,99279.52
2023-04-11T13:48:15.555Z,99280.84
2023-04-11T13:50:45.229Z,99277.20
2023-04-11T13:53:13.739Z,99281.17
2023-04-11T13:55:47.760Z,99274.49
2023-04-11T13:58:16.321Z,99277.50
2023-04-11T14:00:48.305Z,99281.33
2023-04-11T14:03:18.039Z,99275.30
2023-04-11T14:05:48.522Z,99270.84
2023-04-11T14:08:24.748Z,99268.17
2023-04-11T14:10:57.201Z,99260.08
2023-04-11T14:13:27.367Z,99259.54
2023-04-11T14:16:07.821Z,99257.55
2023-04-11T14:18:40.518Z,99255.48
2023-04-11T14:21:08.728Z,99250.17
2023-04-11T14:23:37.396Z,99253.05
2023-04-11T14:26:09.091Z,99247.15
2023-04-11T14:28:37.749Z,99246.02
2023-04-11T14:31:06.668Z,99247.48
2023-04-11T14:33:41.797Z,99247.10
2023-04-11T14:36:10.368Z,99242.77
2023-04-11T14:38:38.519Z,99243.81
2023-04-11T14:41:07.705Z,99240.06
2023-04-11T14:43:35.932Z,99239.34
2023-04-11T14:46:07.093Z,99244.54
2023-04-11T14:48:36.255Z,99240.90
2023-04-11T14:51:04.746Z,99237.89
2023-04-11T14:53:33.427Z,99241.56
2023-04-11T14:56:04.847Z,99244.94
2023-04-11T14:58:36.618Z,99243.98
2023-04-11T15:01:05.187Z,99243.11
2023-04-11T15:03:34.986Z,99241.46
2023-04-11T15:06:11.271Z,99238.48
2023-04-11T15:08:46.573Z,99235.67
2023-04-11T15:11:22.212Z,99229.27
2023-04-11T15:13:57.352Z,99227.86
2023-04-11T15:16:27.311Z,99224.45
2023-04-11T15:18:55.640Z,99229.63
2023-04-11T15:21:27.628Z,99222.34
2023-04-11T15:24:07.585Z,99220.86
2023-04-11T15:26:42.292Z,99219.06
2023-04-11T15:29:16.047Z,99218.98
2023-04-11T15:31:44.593Z,99220.28
2023-04-11T15:34:14.313Z,99218.92
2023-04-11T15:36:47.429Z,99220.53
2023-04-11T15:39:16.160Z,99219.26
2023-04-11T15:41:44.611Z,99218.84
2023-04-11T15:44:12.784Z,99215.11
2023-04-11T15:46:41.383Z,99212.73
2023-04-11T15:49:09.612Z,99209.12
2023-04-11T15:51:40.779Z,99208.95
2023-04-11T15:54:08.978Z,99204.29
2023-04-11T15:56:37.495Z,99206.29
2023-04-11T15:59:08.114Z,99202.73
2023-04-11T16:01:38.517Z,99197.55
2023-04-11T16:04:09.370Z,99197.67
2023-04-11T16:06:37.872Z,99194.51
2023-04-11T16:09:06.115Z,99185.59
2023-04-11T16:11:38.847Z,99188.14
2023-04-11T16:14:07.324Z,99190.92
2023-04-11T16:16:45.984Z,99189.21
2023-04-11T16:19:16.558Z,99187.48
2023-04-11T16:21:44.801Z,99182.60
2023-04-11T16:24:14.335Z,99187.27
2023-04-11T16:26:43.690Z,99186.29
2023-04-11T16:29:11.894Z,99183.44
2023-04-11T16:31:41.449Z,99185.84
2023-04-11T16:34:09.667Z,99190.80
2023-04-11T16:36:37.837Z,99191.48
2023-04-11T16:39:06.553Z,99190.64
2023-04-11T16:41:37.699Z,99190.52
2023-04-11T16:44:06.284Z,99194.39
2023-04-11T16:46:34.776Z,99194.12
2023-04-11T16:49:03.620Z,99189.76
2023-04-11T16:51:32.136Z,99188.11
2023-04-11T16:54:00.506Z,99186.84
2023-04-11T16:56:29.211Z,99184.11
2023-04-11T16:58:57.705Z,99179.30
2023-04-11T17:01:26.456Z,99179.28
2023-04-11T17:03:56.787Z,99178.69
2023-04-11T17:06:25.993Z,99170.89
2023-04-11T17:08:54.602Z,99176.06
2023-04-11T17:11:22.915Z,99178.37
2023-04-11T17:13:51.722Z,99179.02
2023-04-11T17:16:20.609Z,99174.91
2023-04-11T17:18:48.934Z,99173.50
2023-04-11T17:21:22.091Z,99172.45
2023-04-11T17:23:50.791Z,99175.98
2023-04-11T17:26:20.098Z,99176.13
2023-04-11T17:28:52.006Z,99175.92
2023-04-11T17:31:20.857Z,99174.67
2023-04-11T17:33:50.117Z,99171.70
2023-04-11T17:36:20.080Z,99170.98
2023-04-11T17:38:49.298Z,99170.38
2023-04-11T17:41:17.712Z,99174.86
2023-04-11T17:43:46.273Z,99173.66
2023-04-11T17:46:14.643Z,99177.82
2023-04-11T17:48:43.260Z,99177.99
2023-04-11T17:51:11.545Z,99179.63
2023-04-11T17:53:44.333Z,99182.34
2023-04-11T17:56:14.547Z,99186.55
2023-04-11T17:58:44.910Z,99189.59
2023-04-11T18:01:14.064Z,99190.83
2023-04-11T18:03:44.040Z,99195.73
2023-04-11T18:06:12.656Z,99198.42
2023-04-11T18:08:50.465Z,99199.63
2023-04-11T18:11:21.171Z,99192.52
2023-04-11T18:13:53.989Z,99191.14
2023-04-11T18:16:26.275Z,99181.23
2023-04-11T18:18:54.527Z,99180.69
2023-04-11T18:21:22.706Z,99178.30
2023-04-11T18:23:51.482Z,99178.94
2023-04-11T18:26:19.790Z,99172.53
2023-04-11T18:28:53.251Z,99168.96
2023-04-11T18:31:22.318Z,99163.32
2023-04-11T18:33:50.472Z,99163.77
2023-04-11T18:36:19.118Z,99158.35
2023-04-11T18:38:49.394Z,99152.05
2023-04-11T18:41:18.540Z,99148.38
2023-04-11T18:43:48.032Z,99150.09
2023-04-11T18:46:16.693Z,99147.62
2023-04-11T18:48:45.624Z,99148.90
2023-04-11T18:51:13.859Z,99146.48
2023-04-11T18:53:42.090Z,99144.48
2023-04-11T18:56:11.878Z,99141.30
2023-04-11T18:58:45.725Z,99132.22
2023-04-11T19:01:17.021Z,99127.90
2023-04-11T19:03:46.904Z,99123.44
2023-04-11T19:06:15.295Z,99114.53
2023-04-11T19:08:45.035Z,99104.85
2023-04-11T19:11:14.119Z,99106.73
2023-04-11T19:13:42.361Z,99102.70
2023-04-11T19:16:13.637Z,99099.35
2023-04-11T19:18:42.107Z,99095.35
2023-04-11T19:21:10.362Z,99092.71
2023-04-11T19:23:39.845Z,99098.48
2023-04-11T19:26:08.825Z,99087.61
2023-04-11T19:28:37.700Z,99080.60
2023-04-11T19:31:08.700Z,99072.66
2023-04-11T19:33:39.159Z,99070.05
2023-04-11T19:36:08.234Z,99065.65
2023-04-11T19:38:36.875Z,99061.89
2023-04-11T19:41:11.722Z,99067.49
2023-04-11T19:43:40.838Z,99061.89
2023-04-11T19:46:11.573Z,99063.59
2023-04-11T19:48:40.882Z,99060.31
2023-04-11T19:51:10.584Z,99056.84
2023-04-11T19:53:38.991Z,99054.70
2023-04-11T19:56:12.349Z,99053.34
2023-04-11T19:58:41.738Z,99048.57
2023-04-11T20:01:10.172Z,99056.98
2023-04-11T20:03:40.936Z,99054.23
2023-04-11T20:06:12.488Z,99048.98
2023-04-11T20:08:41.067Z,99054.30
2023-04-11T20:11:13.827Z,99051.28
2023-04-11T20:13:42.280Z,99047.03
2023-04-11T20:16:11.822Z,99042.13
2023-04-11T20:18:40.986Z,99036.64
2023-04-11T20:21:09.603Z,99029.88
2023-04-11T20:23:42.445Z,99027.38
2023-04-11T20:26:10.650Z,99026.89
2023-04-11T20:28:39.652Z,99026.23
2023-04-11T20:31:08.547Z,99028.84
2023-04-11T20:33:37.125Z,99026.55
2023-04-11T20:36:07.999Z,99026.95
2023-04-11T20:38:37.071Z,99029.27
2023-04-11T20:41:06.368Z,99030.23
2023-04-11T20:43:41.810Z,99029.44
2023-04-11T20:46:13.613Z,99027.97
2023-04-11T20:48:42.776Z,99023.88
2023-04-11T20:51:11.452Z,99018.30
2023-04-11T20:53:40.609Z,99017.49
2023-04-11T20:56:08.923Z,99020.85
2023-04-11T20:58:37.747Z,99018.87
2023-04-11T21:01:06.632Z,99014.36
2023-04-11T21:03:38.685Z,99012.39
2023-04-11T21:06:07.734Z,99006.86
2023-04-11T21:08:38.310Z,99013.20
2023-04-11T21:11:07.878Z,99012.55
2023-04-11T21:13:36.121Z,99019.50
2023-04-11T21:16:04.733Z,99020.70
2023-04-11T21:18:36.188Z,99018.88
2023-04-11T21:21:08.107Z,99020.05
2023-04-11T21:23:42.591Z,99015.57
2023-04-11T21:26:11.817Z,99017.57
2023-04-11T21:28:44.199Z,99016.36
2023-04-11T21:31:32.353Z,99013.88
2023-04-11T21:34:00.992Z,99009.80
2023-04-11T21:36:29.733Z,99012.16
2023-04-11T21:38:58.913Z,99009.37
2023-04-11T21:41:28.975Z,99007.70
2023-04-11T21:43:57.568Z,99001.29
2023-04-11T21:46:29.518Z,98996.38
2023-04-11T21:48:58.343Z,98984.64
2023-04-11T21:51:28.282Z,98980.94
2023-04-11T21:53:57.504Z,98974.58
2023-04-11T21:56:26.122Z,98971.74
2023-04-11T21:58:57.007Z,98970.44
2023-04-11T22:01:25.684Z,98972.07
2023-04-11T22:03:54.351Z,98963.17
2023-04-11T22:06:25.383Z,98960.86
2023-04-11T22:08:53.790Z,98952.25
2023-04-11T22:11:21.930Z,98947.79
2023-04-11T22:13:52.914Z,98940.86
2023-04-11T22:16:26.534Z,98935.13
2023-04-11T22:18:54.853Z,98931.88
2023-04-11T22:21:31.993Z,98929.04
2023-04-11T22:24:02.546Z,98929.55
2023-04-11T22:26:34.193Z,98921.32
2023-04-11T22:31:59.633Z,98913.56
2023-04-11T22:34:28.264Z,98907.61
2023-04-11T22:37:00.194Z,98904.26
2023-04-11T22:39:28.672Z,98899.19
2023-04-11T22:41:56.897Z,98895.27
2023-04-11T22:44:25.574Z,98891.00
2023-04-11T22:47:00.931Z,98891.13
2023-04-11T22:49:29.511Z,98887.05
2023-04-11T22:51:59.475Z,98882.00
2023-04-11T22:54:29.605Z,98871.67
2023-04-11T22:56:58.813Z,98871.31
2023-04-11T22:59:33.824Z,98867.46
2023-04-11T23:02:02.159Z,98866.20
2023-04-11T23:04:31.764Z,98859.44
2023-04-11T23:07:05.092Z,98851.34
2023-04-11T23:09:33.612Z,98854.40
2023-04-11T23:12:02.880Z,98848.06
2023-04-11T23:14:32.485Z,98845.80
2023-04-11T23:17:01.254Z,98839.20
2023-04-11T23:19:32.691Z,98837.02
2023-04-11T23:22:02.565Z,98830.52
2023-04-11T23:24:31.837Z,98832.92
2023-04-11T23:27:00.062Z,98828.39
2023-04-11T23:29:29.282Z,98825.20
2023-04-11T23:31:57.512Z,98819.29
2023-04-11T23:34:30.760Z,98812.16
2023-04-11T23:36:59.235Z,98803.15
2023-04-11T23:39:28.279Z,98800.02
2023-04-11T23:41:57.277Z,98796.70
2023-04-11T23:44:25.839Z,98795.46
2023-04-11T23:46:54.154Z,98794.27
2023-04-11T23:49:22.385Z,98794.13
2023-04-11T23:51:50.750Z,98791.19
2023-04-11T23:54:19.654Z,98792.80
2023-04-11T23:56:48.056Z,98789.35
2023-04-11T23:59:16.368Z,98796.73
